sensor_id;sensor_type;location;lat;lon;timestamp;pressure;altitude;pressure_sealevel;temperature;humidity
64792;BME280;51226;47.504;19.074;2024-02-16T00:01:00;101019.16;;;10.48;58.79
64792;BME280;51226;47.504;19.074;2024-02-16T00:04:11;101013.28;;;10.52;58.70
64792;BME280;51226;47.504;19.074;2024-02-16T00:07:14;101016.63;;;10.50;58.78
64792;BME280;51226;47.504;19.074;2024-02-16T00:10:16;101008.72;;;10.48;58.44
64792;BME280;51226;47.504;19.074;2024-02-16T00:13:21;101013.84;;;10.47;58.31
64792;BME280;51226;47.504;19.074;2024-02-16T00:16:24;101002.22;;;10.40;58.24
64792;BME280;51226;47.504;19.074;2024-02-16T00:19:27;101003.88;;;10.38;58.22
64792;BME280;51226;47.504;19.074;2024-02-16T00:22:31;101005.44;;;10.34;58.40
64792;BME280;51226;47.504;19.074;2024-02-16T00:25:34;101007.13;;;10.34;58.28
64792;BME280;51226;47.504;19.074;2024-02-16T00:28:36;100999.06;;;10.29;58.22
64792;BME280;51226;47.504;19.074;2024-02-16T00:31:39;101004.38;;;10.31;58.10
64792;BME280;51226;47.504;19.074;2024-02-16T00:34:43;100993.22;;;10.33;58.05
64792;BME280;51226;47.504;19.074;2024-02-16T00:37:45;101000.16;;;10.33;58.20
64792;BME280;51226;47.504;19.074;2024-02-16T00:40:48;100998.59;;;10.36;58.24
64792;BME280;51226;47.504;19.074;2024-02-16T00:43:51;100992.50;;;10.36;58.41
64792;BME280;51226;47.504;19.074;2024-02-16T00:46:54;100997.16;;;10.43;58.30
64792;BME280;51226;47.504;19.074;2024-02-16T00:49:58;101000.16;;;10.33;58.40
64792;BME280;51226;47.504;19.074;2024-02-16T00:53:01;100993.37;;;10.54;57.93
64792;BME280;51226;47.504;19.074;2024-02-16T00:56:05;101001.47;;;10.61;57.82
64792;BME280;51226;47.504;19.074;2024-02-16T00:59:09;101000.09;;;10.49;58.08
64792;BME280;51226;47.504;19.074;2024-02-16T01:02:12;100998.06;;;10.44;58.17
64792;BME280;51226;47.504;19.074;2024-02-16T01:05:15;100997.84;;;10.39;58.35
64792;BME280;51226;47.504;19.074;2024-02-16T01:08:20;100993.06;;;10.48;58.25
64792;BME280;51226;47.504;19.074;2024-02-16T01:11:23;100990.22;;;10.62;57.63
64792;BME280;51226;47.504;19.074;2024-02-16T01:14:26;100995.66;;;10.48;57.77
64792;BME280;51226;47.504;19.074;2024-02-16T01:17:28;100994.09;;;10.52;57.64
64792;BME280;51226;47.504;19.074;2024-02-16T01:20:32;100983.31;;;10.44;57.85
64792;BME280;51226;47.504;19.074;2024-02-16T01:23:35;100989.72;;;10.33;57.78
64792;BME280;51226;47.504;19.074;2024-02-16T01:26:37;100992.34;;;10.33;57.97
64792;BME280;51226;47.504;19.074;2024-02-16T01:29:40;100978.53;;;10.35;58.15
64792;BME280;51226;47.504;19.074;2024-02-16T01:32:44;100991.94;;;10.43;57.97
64792;BME280;51226;47.504;19.074;2024-02-16T01:35:46;100991.78;;;10.40;58.09
64792;BME280;51226;47.504;19.074;2024-02-16T01:38:49;100995.38;;;10.42;57.85
64792;BME280;51226;47.504;19.074;2024-02-16T01:41:52;100981.12;;;10.35;57.67
64792;BME280;51226;47.504;19.074;2024-02-16T01:44:55;100983.34;;;10.28;57.71
64792;BME280;51226;47.504;19.074;2024-02-16T01:47:57;100987.47;;;10.23;57.64
64792;BME280;51226;47.504;19.074;2024-02-16T01:51:00;100985.25;;;10.14;57.98
64792;BME280;51226;47.504;19.074;2024-02-16T01:54:06;100984.06;;;10.07;58.21
64792;BME280;51226;47.504;19.074;2024-02-16T01:57:09;100985.44;;;9.99;58.30
64792;BME280;51226;47.504;19.074;2024-02-16T02:00:14;100980.94;;;9.96;58.45
64792;BME280;51226;47.504;19.074;2024-02-16T02:03:21;100981.31;;;9.86;58.61
64792;BME280;51226;47.504;19.074;2024-02-16T02:06:25;100971.59;;;9.83;58.83
64792;BME280;51226;47.504;19.074;2024-02-16T02:09:28;100974.00;;;9.79;58.95
64792;BME280;51226;47.504;19.074;2024-02-16T02:12:31;100973.69;;;9.73;59.19
64792;BME280;51226;47.504;19.074;2024-02-16T02:15:34;100985.75;;;9.71;59.26
64792;BME280;51226;47.504;19.074;2024-02-16T02:18:40;100970.69;;;9.65;59.41
64792;BME280;51226;47.504;19.074;2024-02-16T02:21:43;100968.75;;;9.61;59.67
64792;BME280;51226;47.504;19.074;2024-02-16T02:24:46;100973.88;;;9.59;59.82
64792;BME280;51226;47.504;19.074;2024-02-16T02:27:49;100968.41;;;9.55;59.73
64792;BME280;51226;47.504;19.074;2024-02-16T02:30:52;100975.09;;;9.50;60.00
64792;BME280;51226;47.504;19.074;2024-02-16T02:33:56;100977.53;;;9.46;60.16
64792;BME280;51226;47.504;19.074;2024-02-16T02:36:59;100968.78;;;9.44;60.27
64792;BME280;51226;47.504;19.074;2024-02-16T02:40:02;100965.91;;;9.40;60.51
64792;BME280;51226;47.504;19.074;2024-02-16T02:43:08;100970.88;;;9.35;60.63
64792;BME280;51226;47.504;19.074;2024-02-16T02:46:15;100974.66;;;9.24;60.86
64792;BME280;51226;47.504;19.074;2024-02-16T02:49:18;100970.25;;;9.23;60.97
64792;BME280;51226;47.504;19.074;2024-02-16T02:52:21;100973.50;;;9.19;61.13
64792;BME280;51226;47.504;19.074;2024-02-16T02:55:24;100971.72;;;9.18;61.15
64792;BME280;51226;47.504;19.074;2024-02-16T02:58:27;100974.38;;;9.03;61.06
64792;BME280;51226;47.504;19.074;2024-02-16T03:01:30;100978.22;;;9.09;60.91
64792;BME280;51226;47.504;19.074;2024-02-16T03:04:33;100979.00;;;9.08;61.09
64792;BME280;51226;47.504;19.074;2024-02-16T03:07:36;100980.03;;;9.11;61.45
64792;BME280;51226;47.504;19.074;2024-02-16T03:10:39;100978.72;;;9.02;61.79
64792;BME280;51226;47.504;19.074;2024-02-16T03:13:42;100981.31;;;9.02;62.00
64792;BME280;51226;47.504;19.074;2024-02-16T03:16:45;100981.16;;;8.99;62.13
64792;BME280;51226;47.504;19.074;2024-02-16T03:19:48;100981.06;;;8.98;62.28
64792;BME280;51226;47.504;19.074;2024-02-16T03:22:51;100978.19;;;8.93;62.49
64792;BME280;51226;47.504;19.074;2024-02-16T03:25:53;100978.03;;;8.90;62.67
64792;BME280;51226;47.504;19.074;2024-02-16T03:28:56;100971.06;;;8.89;62.74
64792;BME280;51226;47.504;19.074;2024-02-16T03:31:58;100977.94;;;8.88;62.85
64792;BME280;51226;47.504;19.074;2024-02-16T03:35:01;100979.56;;;8.86;62.91
64792;BME280;51226;47.504;19.074;2024-02-16T03:38:04;100982.78;;;8.97;62.81
64792;BME280;51226;47.504;19.074;2024-02-16T03:41:07;100979.03;;;8.92;62.87
64792;BME280;51226;47.504;19.074;2024-02-16T03:44:12;100986.56;;;8.87;62.94
64792;BME280;51226;47.504;19.074;2024-02-16T03:47:14;100977.62;;;8.82;62.94
64792;BME280;51226;47.504;19.074;2024-02-16T03:50:17;100976.56;;;8.79;63.10
64792;BME280;51226;47.504;19.074;2024-02-16T03:53:20;100978.81;;;8.73;63.22
64792;BME280;51226;47.504;19.074;2024-02-16T03:56:22;100981.34;;;8.71;63.25
64792;BME280;51226;47.504;19.074;2024-02-16T03:59:25;100986.28;;;8.66;63.35
64792;BME280;51226;47.504;19.074;2024-02-16T04:02:28;100983.69;;;8.66;63.40
64792;BME280;51226;47.504;19.074;2024-02-16T04:05:31;100978.22;;;8.62;63.58
64792;BME280;51226;47.504;19.074;2024-02-16T04:08:35;100989.53;;;8.62;63.69
64792;BME280;51226;47.504;19.074;2024-02-16T04:11:39;100985.94;;;8.60;63.76
64792;BME280;51226;47.504;19.074;2024-02-16T04:14:41;100992.22;;;8.64;63.85
64792;BME280;51226;47.504;19.074;2024-02-16T04:17:44;100997.03;;;8.73;63.67
64792;BME280;51226;47.504;19.074;2024-02-16T04:20:47;100991.66;;;8.69;63.71
64792;BME280;51226;47.504;19.074;2024-02-16T04:23:50;100992.03;;;8.61;63.92
64792;BME280;51226;47.504;19.074;2024-02-16T04:26:53;100996.31;;;8.60;64.05
64792;BME280;51226;47.504;19.074;2024-02-16T04:29:56;101003.34;;;8.61;63.94
64792;BME280;51226;47.504;19.074;2024-02-16T04:32:59;101004.44;;;8.50;64.16
64792;BME280;51226;47.504;19.074;2024-02-16T04:36:05;100997.47;;;8.49;64.26
64792;BME280;51226;47.504;19.074;2024-02-16T04:39:07;101002.31;;;8.43;64.43
64792;BME280;51226;47.504;19.074;2024-02-16T04:42:13;101002.84;;;8.37;64.63
64792;BME280;51226;47.504;19.074;2024-02-16T04:45:15;101002.56;;;8.32;64.90
64792;BME280;51226;47.504;19.074;2024-02-16T04:48:18;101007.59;;;8.29;64.91
64792;BME280;51226;47.504;19.074;2024-02-16T04:51:21;101003.91;;;8.26;65.08
64792;BME280;51226;47.504;19.074;2024-02-16T04:54:24;101012.41;;;8.23;65.15
64792;BME280;51226;47.504;19.074;2024-02-16T04:57:26;101011.62;;;8.24;65.17
64792;BME280;51226;47.504;19.074;2024-02-16T05:00:29;101019.59;;;8.27;65.10
64792;BME280;51226;47.504;19.074;2024-02-16T05:03:32;101013.25;;;8.22;65.13
64792;BME280;51226;47.504;19.074;2024-02-16T05:06:38;101016.53;;;8.20;65.10
64792;BME280;51226;47.504;19.074;2024-02-16T05:09:41;101006.97;;;8.19;65.07
64792;BME280;51226;47.504;19.074;2024-02-16T05:12:45;101010.09;;;8.13;65.09
64792;BME280;51226;47.504;19.074;2024-02-16T05:15:48;101016.13;;;8.12;65.37
64792;BME280;51226;47.504;19.074;2024-02-16T05:18:51;101014.13;;;8.08;65.27
64792;BME280;51226;47.504;19.074;2024-02-16T05:21:54;101015.03;;;8.08;65.02
64792;BME280;51226;47.504;19.074;2024-02-16T05:24:58;101020.22;;;8.08;64.97
64792;BME280;51226;47.504;19.074;2024-02-16T05:28:00;101015.03;;;8.08;65.10
64792;BME280;51226;47.504;19.074;2024-02-16T05:31:12;101017.53;;;8.07;65.19
64792;BME280;51226;47.504;19.074;2024-02-16T05:34:19;101025.16;;;8.04;65.21
64792;BME280;51226;47.504;19.074;2024-02-16T05:37:22;101020.78;;;8.03;65.13
64792;BME280;51226;47.504;19.074;2024-02-16T05:40:25;101020.69;;;8.01;65.29
64792;BME280;51226;47.504;19.074;2024-02-16T05:43:30;101021.56;;;8.16;65.13
64792;BME280;51226;47.504;19.074;2024-02-16T05:46:33;101022.56;;;8.19;65.90
64792;BME280;51226;47.504;19.074;2024-02-16T05:49:36;101033.28;;;8.10;66.30
64792;BME280;51226;47.504;19.074;2024-02-16T05:52:40;101027.37;;;8.27;66.49
64792;BME280;51226;47.504;19.074;2024-02-16T05:55:43;101030.59;;;8.23;66.76
64792;BME280;51226;47.504;19.074;2024-02-16T05:58:46;101022.53;;;8.33;66.67
64792;BME280;51226;47.504;19.074;2024-02-16T06:01:53;101032.59;;;8.27;66.91
64792;BME280;51226;47.504;19.074;2024-02-16T06:04:55;101036.06;;;8.28;66.82
64792;BME280;51226;47.504;19.074;2024-02-16T06:07:58;101029.81;;;8.24;66.93
64792;BME280;51226;47.504;19.074;2024-02-16T06:11:01;101035.97;;;8.26;66.76
64792;BME280;51226;47.504;19.074;2024-02-16T06:14:04;101045.91;;;8.33;66.52
64792;BME280;51226;47.504;19.074;2024-02-16T06:17:07;101044.06;;;8.31;66.41
64792;BME280;51226;47.504;19.074;2024-02-16T06:20:11;101045.56;;;8.42;66.12
64792;BME280;51226;47.504;19.074;2024-02-16T06:23:14;101047.00;;;8.37;66.24
64792;BME280;51226;47.504;19.074;2024-02-16T06:26:19;101047.25;;;8.42;66.20
64792;BME280;51226;47.504;19.074;2024-02-16T06:29:23;101054.91;;;8.39;66.06
64792;BME280;51226;47.504;19.074;2024-02-16T06:32:26;101053.09;;;8.38;66.00
64792;BME280;51226;47.504;19.074;2024-02-16T06:35:31;101058.22;;;8.36;65.84
64792;BME280;51226;47.504;19.074;2024-02-16T06:38:34;101062.69;;;8.53;65.04
64792;BME280;51226;47.504;19.074;2024-02-16T06:41:36;101062.19;;;8.44;65.28
64792;BME280;51226;47.504;19.074;2024-02-16T06:44:39;101068.03;;;8.42;65.28
64792;BME280;51226;47.504;19.074;2024-02-16T06:47:43;101065.22;;;8.52;64.83
64792;BME280;51226;47.504;19.074;2024-02-16T06:50:45;101072.19;;;8.53;64.85
64792;BME280;51226;47.504;19.074;2024-02-16T06:53:49;101070.44;;;8.52;64.99
64792;BME280;51226;47.504;19.074;2024-02-16T06:56:52;101078.28;;;8.53;64.98
64792;BME280;51226;47.504;19.074;2024-02-16T06:59:55;101086.06;;;8.68;64.32
64792;BME280;51226;47.504;19.074;2024-02-16T07:03:00;101081.06;;;9.03;62.77
64792;BME280;51226;47.504;19.074;2024-02-16T07:06:03;101082.59;;;8.99;62.73
64792;BME280;51226;47.504;19.074;2024-02-16T07:09:06;101095.63;;;8.99;62.63
64792;BME280;51226;47.504;19.074;2024-02-16T07:12:09;101098.00;;;9.11;62.05
64792;BME280;51226;47.504;19.074;2024-02-16T07:15:15;101103.47;;;9.16;61.96
64792;BME280;51226;47.504;19.074;2024-02-16T07:18:17;101103.19;;;9.11;62.02
64792;BME280;51226;47.504;19.074;2024-02-16T07:21:20;101104.69;;;9.22;61.31
64792;BME280;51226;47.504;19.074;2024-02-16T07:24:25;101105.34;;;9.35;60.81
64792;BME280;51226;47.504;19.074;2024-02-16T07:27:30;101098.53;;;9.37;60.68
64792;BME280;51226;47.504;19.074;2024-02-16T07:30:33;101101.41;;;9.58;60.04
64792;BME280;51226;47.504;19.074;2024-02-16T07:33:44;101095.69;;;9.81;59.15
64792;BME280;51226;47.504;19.074;2024-02-16T07:36:47;101098.63;;;9.88;58.64
64792;BME280;51226;47.504;19.074;2024-02-16T07:39:50;101091.78;;;9.90;58.74
64792;BME280;51226;47.504;19.074;2024-02-16T07:42:53;101099.56;;;10.06;58.08
64792;BME280;51226;47.504;19.074;2024-02-16T07:45:57;101098.63;;;10.04;58.45
64792;BME280;51226;47.504;19.074;2024-02-16T07:48:59;101100.69;;;10.28;57.58
64792;BME280;51226;47.504;19.074;2024-02-16T07:52:02;101096.84;;;10.55;56.91
64792;BME280;51226;47.504;19.074;2024-02-16T07:55:05;101091.34;;;10.85;55.71
64792;BME280;51226;47.504;19.074;2024-02-16T07:58:08;101096.94;;;11.11;54.38
64792;BME280;51226;47.504;19.074;2024-02-16T08:01:12;101085.81;;;11.92;50.06
64792;BME280;51226;47.504;19.074;2024-02-16T08:04:18;101093.09;;;14.49;44.18
64792;BME280;51226;47.504;19.074;2024-02-16T08:07:20;101070.59;;;16.71;37.79
64792;BME280;51226;47.504;19.074;2024-02-16T08:10:23;101069.31;;;17.74;35.60
64792;BME280;51226;47.504;19.074;2024-02-16T08:13:27;101076.91;;;19.06;33.51
64792;BME280;51226;47.504;19.074;2024-02-16T08:16:31;101062.50;;;21.63;29.37
64792;BME280;51226;47.504;19.074;2024-02-16T08:19:34;101067.81;;;23.41;26.32
64792;BME280;51226;47.504;19.074;2024-02-16T08:22:38;101060.72;;;23.37;26.00
64792;BME280;51226;47.504;19.074;2024-02-16T08:25:40;101070.63;;;22.84;26.87
64792;BME280;51226;47.504;19.074;2024-02-16T08:28:43;101060.25;;;24.25;25.19
64792;BME280;51226;47.504;19.074;2024-02-16T08:31:49;101070.50;;;24.78;24.04
64792;BME280;51226;47.504;19.074;2024-02-16T08:34:53;101065.59;;;24.23;24.94
64792;BME280;51226;47.504;19.074;2024-02-16T08:38:01;101066.19;;;22.69;26.36
64792;BME280;51226;47.504;19.074;2024-02-16T08:41:04;101070.56;;;23.13;26.52
64792;BME280;51226;47.504;19.074;2024-02-16T08:44:07;101075.94;;;22.78;26.25
64792;BME280;51226;47.504;19.074;2024-02-16T08:47:14;101071.50;;;22.76;25.92
64792;BME280;51226;47.504;19.074;2024-02-16T08:50:16;101077.72;;;22.75;26.11
64792;BME280;51226;47.504;19.074;2024-02-16T08:53:19;101072.41;;;22.37;25.49
64792;BME280;51226;47.504;19.074;2024-02-16T08:56:22;101072.41;;;22.49;25.07
64792;BME280;51226;47.504;19.074;2024-02-16T08:59:25;101067.81;;;23.42;24.16
64792;BME280;51226;47.504;19.074;2024-02-16T09:02:29;101061.44;;;25.71;22.41
64792;BME280;51226;47.504;19.074;2024-02-16T09:05:32;101059.16;;;28.33;19.62
64792;BME280;51226;47.504;19.074;2024-02-16T09:08:34;101060.66;;;31.10;16.42
64792;BME280;51226;47.504;19.074;2024-02-16T09:11:38;101058.59;;;32.54;14.89
64792;BME280;51226;47.504;19.074;2024-02-16T09:14:40;101056.75;;;33.76;13.77
64792;BME280;51226;47.504;19.074;2024-02-16T09:17:43;101059.94;;;34.58;13.12
64792;BME280;51226;47.504;19.074;2024-02-16T09:20:46;101061.72;;;35.76;12.57
64792;BME280;51226;47.504;19.074;2024-02-16T09:23:49;101061.72;;;36.54;11.77
64792;BME280;51226;47.504;19.074;2024-02-16T09:26:51;101058.94;;;37.44;11.15
64792;BME280;51226;47.504;19.074;2024-02-16T09:29:55;101052.94;;;37.95;10.56
64792;BME280;51226;47.504;19.074;2024-02-16T09:32:58;101052.44;;;38.83;10.14
64792;BME280;51226;47.504;19.074;2024-02-16T09:36:01;101049.91;;;39.81;9.49
64792;BME280;51226;47.504;19.074;2024-02-16T09:39:04;101061.03;;;39.67;9.55
64792;BME280;51226;47.504;19.074;2024-02-16T09:42:07;101061.28;;;38.86;9.70
64792;BME280;51226;47.504;19.074;2024-02-16T09:45:09;101058.75;;;39.84;9.37
64792;BME280;51226;47.504;19.074;2024-02-16T09:48:15;101061.06;;;39.28;9.38
64792;BME280;51226;47.504;19.074;2024-02-16T09:51:19;101064.53;;;38.79;9.61
64792;BME280;51226;47.504;19.074;2024-02-16T09:54:22;101063.87;;;39.01;9.62
64792;BME280;51226;47.504;19.074;2024-02-16T09:57:24;101060.81;;;39.57;9.33
64792;BME280;51226;47.504;19.074;2024-02-16T10:00:27;101054.25;;;39.59;9.52
64792;BME280;51226;47.504;19.074;2024-02-16T10:03:31;101058.78;;;39.09;9.44
64792;BME280;51226;47.504;19.074;2024-02-16T10:06:47;101056.41;;;36.98;10.55
64792;BME280;51226;47.504;19.074;2024-02-16T10:09:51;101054.59;;;35.09;11.83
64792;BME280;51226;47.504;19.074;2024-02-16T10:13:03;101057.84;;;32.50;13.66
64792;BME280;51226;47.504;19.074;2024-02-16T10:16:07;101053.72;;;30.53;15.18
64792;BME280;51226;47.504;19.074;2024-02-16T10:19:11;101056.56;;;28.66;16.87
64792;BME280;51226;47.504;19.074;2024-02-16T10:22:18;101059.56;;;26.90;18.50
64792;BME280;51226;47.504;19.074;2024-02-16T10:25:21;101054.22;;;25.78;19.69
64792;BME280;51226;47.504;19.074;2024-02-16T10:28:24;101045.84;;;25.36;20.55
64792;BME280;51226;47.504;19.074;2024-02-16T10:31:30;101043.47;;;24.13;21.66
64792;BME280;51226;47.504;19.074;2024-02-16T10:34:33;101040.03;;;23.96;22.15
64792;BME280;51226;47.504;19.074;2024-02-16T10:37:37;101040.41;;;23.12;23.31
64792;BME280;51226;47.504;19.074;2024-02-16T10:40:40;101040.44;;;22.94;23.29
64792;BME280;51226;47.504;19.074;2024-02-16T10:43:43;101038.72;;;22.59;23.64
64792;BME280;51226;47.504;19.074;2024-02-16T10:46:49;101034.28;;;22.21;23.86
64792;BME280;51226;47.504;19.074;2024-02-16T10:49:52;101026.28;;;21.90;24.68
64792;BME280;51226;47.504;19.074;2024-02-16T10:52:56;101027.06;;;21.60;25.21
64792;BME280;51226;47.504;19.074;2024-02-16T10:56:01;101019.94;;;21.43;25.40
64792;BME280;51226;47.504;19.074;2024-02-16T10:59:04;101015.50;;;21.44;25.49
64792;BME280;51226;47.504;19.074;2024-02-16T11:02:07;101015.63;;;21.78;25.40
64792;BME280;51226;47.504;19.074;2024-02-16T11:05:10;101009.41;;;21.85;25.28
64792;BME280;51226;47.504;19.074;2024-02-16T11:08:15;101008.56;;;21.77;25.72
64792;BME280;51226;47.504;19.074;2024-02-16T11:11:24;101004.09;;;21.70;25.84
64792;BME280;51226;47.504;19.074;2024-02-16T11:14:34;100995.22;;;21.64;25.92
64792;BME280;51226;47.504;19.074;2024-02-16T11:17:36;100998.69;;;21.46;26.31
64792;BME280;51226;47.504;19.074;2024-02-16T11:20:40;100988.16;;;21.63;26.18
64792;BME280;51226;47.504;19.074;2024-02-16T11:23:44;100982.81;;;21.50;26.64
64792;BME280;51226;47.504;19.074;2024-02-16T11:26:46;100978.34;;;21.45;26.71
64792;BME280;51226;47.504;19.074;2024-02-16T11:29:49;100984.47;;;21.26;26.87
64792;BME280;51226;47.504;19.074;2024-02-16T11:32:53;100991.47;;;21.12;27.24
64792;BME280;51226;47.504;19.074;2024-02-16T11:35:59;100983.53;;;21.13;26.92
64792;BME280;51226;47.504;19.074;2024-02-16T11:39:03;100972.94;;;21.19;27.08
64792;BME280;51226;47.504;19.074;2024-02-16T11:42:18;100975.56;;;21.12;27.37
64792;BME280;51226;47.504;19.074;2024-02-16T11:45:21;100965.87;;;21.21;27.26
64792;BME280;51226;47.504;19.074;2024-02-16T11:48:25;100965.13;;;21.50;27.16
64792;BME280;51226;47.504;19.074;2024-02-16T11:51:28;100964.06;;;21.11;27.45
64792;BME280;51226;47.504;19.074;2024-02-16T11:54:31;100959.66;;;21.15;27.40
64792;BME280;51226;47.504;19.074;2024-02-16T11:57:35;100957.91;;;21.15;27.80
64792;BME280;51226;47.504;19.074;2024-02-16T12:00:39;100959.66;;;21.08;27.61
64792;BME280;51226;47.504;19.074;2024-02-16T12:03:42;100960.41;;;20.81;27.95
64792;BME280;51226;47.504;19.074;2024-02-16T12:06:45;100953.41;;;20.94;27.76
64792;BME280;51226;47.504;19.074;2024-02-16T12:09:57;100948.16;;;21.03;28.17
64792;BME280;51226;47.504;19.074;2024-02-16T12:13:00;100944.47;;;20.72;28.18
64792;BME280;51226;47.504;19.074;2024-02-16T12:16:09;100947.88;;;20.59;28.75
64792;BME280;51226;47.504;19.074;2024-02-16T12:19:12;100941.78;;;20.67;28.46
64792;BME280;51226;47.504;19.074;2024-02-16T12:22:19;100935.34;;;20.33;28.96
64792;BME280;51226;47.504;19.074;2024-02-16T12:25:22;100934.41;;;20.28;29.16
64792;BME280;51226;47.504;19.074;2024-02-16T12:28:26;100936.31;;;20.47;28.74
64792;BME280;51226;47.504;19.074;2024-02-16T12:31:30;100935.47;;;20.54;28.72
64792;BME280;51226;47.504;19.074;2024-02-16T12:34:33;100924.03;;;20.59;28.45
64792;BME280;51226;47.504;19.074;2024-02-16T12:37:36;100936.44;;;20.63;28.48
64792;BME280;51226;47.504;19.074;2024-02-16T12:40:40;100929.41;;;20.63;28.54
64792;BME280;51226;47.504;19.074;2024-02-16T12:43:44;100923.25;;;20.70;28.57
64792;BME280;51226;47.504;19.074;2024-02-16T12:46:47;100912.69;;;20.86;28.38
64792;BME280;51226;47.504;19.074;2024-02-16T12:49:50;100914.56;;;21.16;27.95
64792;BME280;51226;47.504;19.074;2024-02-16T12:52:53;100914.56;;;21.10;27.92
64792;BME280;51226;47.504;19.074;2024-02-16T12:56:06;100911.94;;;21.24;27.68
64792;BME280;51226;47.504;19.074;2024-02-16T12:59:09;100916.41;;;21.45;27.74
64792;BME280;51226;47.504;19.074;2024-02-16T13:02:11;100914.69;;;21.59;27.37
64792;BME280;51226;47.504;19.074;2024-02-16T13:05:14;100902.31;;;21.55;27.61
64792;BME280;51226;47.504;19.074;2024-02-16T13:08:17;100905.84;;;21.57;27.57
64792;BME280;51226;47.504;19.074;2024-02-16T13:11:20;100900.56;;;21.79;27.12
64792;BME280;51226;47.504;19.074;2024-02-16T13:14:23;100891.69;;;22.15;26.69
64792;BME280;51226;47.504;19.074;2024-02-16T13:17:26;100886.97;;;23.10;25.62
64792;BME280;51226;47.504;19.074;2024-02-16T13:20:28;100876.91;;;24.51;23.76
64792;BME280;51226;47.504;19.074;2024-02-16T13:23:32;100870.31;;;26.50;21.60
64792;BME280;51226;47.504;19.074;2024-02-16T13:26:34;100867.59;;;28.07;19.88
64792;BME280;51226;47.504;19.074;2024-02-16T13:29:37;100871.19;;;28.06;19.81
64792;BME280;51226;47.504;19.074;2024-02-16T13:32:39;100874.28;;;29.16;18.79
64792;BME280;51226;47.504;19.074;2024-02-16T13:35:46;100872.78;;;29.64;18.41
64792;BME280;51226;47.504;19.074;2024-02-16T13:38:48;100869.78;;;28.89;18.69
64792;BME280;51226;47.504;19.074;2024-02-16T13:41:51;100869.88;;;28.54;19.21
64792;BME280;51226;47.504;19.074;2024-02-16T13:44:54;100869.97;;;26.68;20.89
64792;BME280;51226;47.504;19.074;2024-02-16T13:47:57;100870.53;;;24.68;23.07
64792;BME280;51226;47.504;19.074;2024-02-16T13:51:00;100869.19;;;23.18;24.88
64792;BME280;51226;47.504;19.074;2024-02-16T13:54:03;100877.53;;;21.59;27.07
64792;BME280;51226;47.504;19.074;2024-02-16T13:57:06;100872.97;;;20.97;28.06
64792;BME280;51226;47.504;19.074;2024-02-16T14:00:09;100876.94;;;20.14;29.30
64792;BME280;51226;47.504;19.074;2024-02-16T14:03:13;100866.78;;;19.61;30.21
64792;BME280;51226;47.504;19.074;2024-02-16T14:06:17;100870.87;;;19.25;30.77
64792;BME280;51226;47.504;19.074;2024-02-16T14:09:20;100871.47;;;18.98;31.39
64792;BME280;51226;47.504;19.074;2024-02-16T14:12:32;100875.44;;;18.65;31.77
64792;BME280;51226;47.504;19.074;2024-02-16T14:15:34;100878.53;;;18.31;32.59
64792;BME280;51226;47.504;19.074;2024-02-16T14:18:37;100874.34;;;17.88;33.46
64792;BME280;51226;47.504;19.074;2024-02-16T14:21:45;100873.97;;;17.66;33.67
64792;BME280;51226;47.504;19.074;2024-02-16T14:24:50;100870.94;;;17.43;34.26
64792;BME280;51226;47.504;19.074;2024-02-16T14:27:53;100875.28;;;16.95;35.21
64792;BME280;51226;47.504;19.074;2024-02-16T14:30:58;100873.47;;;16.91;35.29
64792;BME280;51226;47.504;19.074;2024-02-16T14:34:00;100872.59;;;16.51;35.98
64792;BME280;51226;47.504;19.074;2024-02-16T14:37:03;100878.81;;;16.15;36.83
64792;BME280;51226;47.504;19.074;2024-02-16T14:40:06;100874.34;;;16.11;36.86
64792;BME280;51226;47.504;19.074;2024-02-16T14:43:13;100874.03;;;15.99;37.35
64792;BME280;51226;47.504;19.074;2024-02-16T14:46:15;100882.31;;;15.78;37.86
64792;BME280;51226;47.504;19.074;2024-02-16T14:49:18;100869.59;;;15.61;38.21
64792;BME280;51226;47.504;19.074;2024-02-16T14:52:24;100882.50;;;15.50;38.81
64792;BME280;51226;47.504;19.074;2024-02-16T14:55:27;100873.56;;;15.44;39.04
64792;BME280;51226;47.504;19.074;2024-02-16T14:58:29;100871.16;;;15.19;39.55
64792;BME280;51226;47.504;19.074;2024-02-16T15:01:32;100874.19;;;15.03;39.91
64792;BME280;51226;47.504;19.074;2024-02-16T15:04:34;100881.84;;;14.94;40.16
64792;BME280;51226;47.504;19.074;2024-02-16T15:07:38;100878.78;;;14.80;40.42
64792;BME280;51226;47.504;19.074;2024-02-16T15:10:41;100874.22;;;14.73;40.90
64792;BME280;51226;47.504;19.074;2024-02-16T15:13:46;100875.59;;;14.60;41.15
64792;BME280;51226;47.504;19.074;2024-02-16T15:16:48;100870.94;;;14.51;41.52
64792;BME280;51226;47.504;19.074;2024-02-16T15:19:52;100870.53;;;14.37;42.30
64792;BME280;51226;47.504;19.074;2024-02-16T15:22:55;100865.81;;;14.25;42.53
64792;BME280;51226;47.504;19.074;2024-02-16T15:25:58;100874.41;;;14.21;42.89
64792;BME280;51226;47.504;19.074;2024-02-16T15:29:02;100876.41;;;14.01;43.19
64792;BME280;51226;47.504;19.074;2024-02-16T15:32:05;100874.78;;;14.05;43.04
64792;BME280;51226;47.504;19.074;2024-02-16T15:35:08;100881.22;;;13.87;43.85
64792;BME280;51226;47.504;19.074;2024-02-16T15:38:12;100877.22;;;13.73;44.38
64792;BME280;51226;47.504;19.074;2024-02-16T15:41:14;100891.84;;;13.65;44.65
64792;BME280;51226;47.504;19.074;2024-02-16T15:44:18;100891.72;;;13.62;44.66
64792;BME280;51226;47.504;19.074;2024-02-16T15:47:21;100887.22;;;13.58;44.81
64792;BME280;51226;47.504;19.074;2024-02-16T15:50:24;100887.84;;;13.50;45.08